Terminal Aerodrome Forecast
Issued by NWS Austin/San Antonio, TX

Home | Current Version | Previous Version | Text Only | Print | Product List | Glossary On
Versions: 1 2 3 4 5 6 7 8 9 10 11 12 13 14 15 16
983
FTUS44 KEWX 261728
TAFDRT
TAF
KDRT 261728Z 2618/2718 12009KT P6SM FEW030 SCT250
     FM262000 13012KT P6SM SCT040
     FM270200 09007KT P6SM SCT250
     FM270600 10005KT P6SM BKN035
     FM271200 11006KT P6SM SCT015=

USA.gov is the U.S. government's official web portal to all federal, state and local government web resources and services.